Time;durP1;ratioP1;P1;durP2;ratioP2;P2;SDS_P1;SDS_P2;PMS_P1;PMS_P2;Temp;Humidity;BMP_temperature;BMP_pressure;BME280_temperature;BME280_humidity;BME280_pressure;Samples;Min_cycle;Max_cycle;Signal;HPM_P1;HPM_P2
2021/05/24 00:02:15;;;;;;;3.00;1.20;;;;;;;9.08;98.44;101222.50;5092927;28;20461;-86
2021/05/24 00:04:42;;;;;;;2.73;1.40;;;;;;;9.17;98.33;101224.66;5083750;28;20469;-84
2021/05/24 00:07:08;;;;;;;4.43;1.60;;;;;;;9.02;99.46;101233.59;5084260;28;20486;-83
2021/05/24 00:09:35;;;;;;;1.57;1.07;;;;;;;8.97;100.00;101226.31;5084411;28;20515;-83
2021/05/24 00:12:02;;;;;;;1.40;1.30;;;;;;;9.10;99.65;101222.22;5083593;28;20489;-83
2021/05/24 00:14:31;;;;;;;1.97;1.03;;;;;;;9.09;100.00;101226.81;5084596;28;20556;-84
2021/05/24 00:16:57;;;;;;;1.73;1.43;;;;;;;9.09;100.00;101234.13;5086338;28;20505;-83
2021/05/24 00:19:24;;;;;;;1.83;1.07;;;;;;;9.10;99.98;101233.03;5083761;28;20495;-84
2021/05/24 00:21:50;;;;;;;2.40;1.20;;;;;;;9.04;99.85;101221.44;5083094;28;20493;-84
2021/05/24 00:24:16;;;;;;;3.53;1.80;;;;;;;9.08;99.85;101221.72;5082585;28;20482;-83
2021/05/24 00:26:42;;;;;;;1.10;0.93;;;;;;;9.06;100.00;101218.47;5082101;28;20429;-83
2021/05/24 00:29:14;;;;;;;1.17;0.97;;;;;;;9.04;100.00;101209.84;5083892;28;20491;-83
2021/05/24 00:31:41;;;;;;;5.50;1.30;;;;;;;9.06;100.00;101204.94;5084165;28;20481;-83
2021/05/24 00:34:08;;;;;;;3.60;1.17;;;;;;;8.97;97.32;101193.91;5083134;28;20481;-84
2021/05/24 00:36:35;;;;;;;0.80;0.70;;;;;;;8.88;97.94;101197.44;5082862;28;20449;-83
2021/05/24 00:39:01;;;;;;;1.30;1.10;;;;;;;8.82;96.71;101193.94;5082812;28;20472;-83
2021/05/24 00:41:27;;;;;;;1.07;0.90;;;;;;;8.74;96.69;101187.22;5081511;28;20448;-83
2021/05/24 00:43:54;;;;;;;1.70;1.50;;;;;;;8.64;96.03;101183.72;5082043;28;20481;-83
2021/05/24 00:46:20;;;;;;;1.73;1.07;;;;;;;8.64;96.36;101189.13;5082315;28;20491;-83
2021/05/24 00:48:48;;;;;;;1.87;0.97;;;;;;;8.56;96.62;101176.97;5082065;28;20843;-83
2021/05/24 00:51:14;;;;;;;1.53;1.27;;;;;;;8.52;96.86;101171.31;5083016;28;20977;-83
2021/05/24 00:53:40;;;;;;;1.23;0.60;;;;;;;8.56;96.17;101172.41;5082124;28;20449;-83
2021/05/24 00:56:06;;;;;;;2.90;1.97;;;;;;;8.60;97.17;101178.06;5081506;28;20441;-83
2021/05/24 00:58:33;;;;;;;0.60;0.50;;;;;;;8.56;99.30;101172.41;5082139;28;20467;-83
2021/05/24 01:01:00;;;;;;;0.97;0.87;;;;;;;8.67;99.31;101161.56;5081727;28;20461;-83
2021/05/24 01:03:26;;;;;;;3.20;1.50;;;;;;;8.68;98.93;101158.59;5082150;28;20481;-83
2021/05/24 01:05:53;;;;;;;1.43;1.03;;;;;;;8.73;99.19;101161.28;5082207;28;20441;-83
2021/05/24 01:08:19;;;;;;;2.10;1.30;;;;;;;8.65;100.00;101155.63;5081618;28;20452;-83
2021/05/24 01:10:46;;;;;;;1.17;0.77;;;;;;;8.68;99.98;101155.91;5082067;28;20445;-83
2021/05/24 01:13:15;;;;;;;0.70;0.60;;;;;;;8.55;100.00;101165.38;5080839;28;20437;-83
2021/05/24 01:15:43;;;;;;;2.00;1.67;;;;;;;8.61;100.00;101166.16;5081295;28;20794;-83
2021/05/24 01:18:10;;;;;;;1.50;0.83;;;;;;;8.59;100.00;101166.47;5077460;28;20437;-83
2021/05/24 01:20:36;;;;;;;2.07;0.80;;;;;;;8.55;100.00;101176.19;5077706;28;20437;-83
2021/05/24 01:23:08;;;;;;;0.97;0.80;;;;;;;8.49;100.00;101169.16;5077662;28;20437;-84
2021/05/24 01:25:38;;;;;;;1.43;0.90;;;;;;;8.53;100.00;101167.53;5079623;28;20434;-83
2021/05/24 01:28:04;;;;;;;1.17;0.90;;;;;;;8.48;100.00;101167.53;5079739;28;20444;-84
2021/05/24 01:30:31;;;;;;;1.00;0.57;;;;;;;8.44;99.18;101166.47;5082350;28;20550;-84
2021/05/24 01:32:57;;;;;;;0.60;0.60;;;;;;;8.47;97.65;101174.03;5081492;28;20448;-84
2021/05/24 01:35:23;;;;;;;1.40;1.00;;;;;;;8.46;96.19;101171.63;5079147;28;20445;-84
2021/05/24 01:37:49;;;;;;;2.13;0.83;;;;;;;8.42;95.76;101157.84;5083288;28;20479;-84
2021/05/24 01:40:17;;;;;;;1.10;0.70;;;;;;;8.44;96.12;101174.56;5080827;28;20441;-83
2021/05/24 01:42:43;;;;;;;1.30;0.97;;;;;;;8.41;96.27;101164.34;5077585;28;20448;-83
2021/05/24 01:45:10;;;;;;;1.00;1.00;;;;;;;8.41;96.28;101164.34;5069043;22;20498;-69
2021/05/24 01:47:37;;;;;;;0.70;0.60;;;;;;;8.37;97.43;101157.84;5053660;28;20962;-69
2021/05/24 01:50:04;;;;;;;1.00;0.77;;;;;;;8.39;99.56;101160.28;5054046;28;20848;-69
2021/05/24 01:52:30;;;;;;;0.90;0.80;;;;;;;8.42;100.00;101154.34;5052777;28;20951;-66
2021/05/24 01:54:56;;;;;;;0.77;0.57;;;;;;;8.49;100.00;101157.53;5053859;28;20505;-69
2021/05/24 01:57:23;;;;;;;0.93;0.80;;;;;;;8.50;100.00;101156.47;5053887;28;20450;-70
2021/05/24 01:59:48;;;;;;;0.93;0.73;;;;;;;8.59;100.00;101166.47;5053611;28;20435;-70
2021/05/24 02:02:15;;;;;;;1.03;0.63;;;;;;;8.61;100.00;101151.88;5052928;28;20536;-68
2021/05/24 02:04:42;;;;;;;0.60;0.50;;;;;;;8.63;100.00;101153.19;5053810;28;20461;-70
2021/05/24 02:07:07;;;;;;;2.70;0.90;;;;;;;8.76;100.00;101160.72;5053782;28;20443;-69
2021/05/24 02:09:35;;;;;;;0.77;0.70;;;;;;;8.81;100.00;101160.72;5053490;28;20507;-69
2021/05/24 02:12:01;;;;;;;0.70;0.60;;;;;;;8.84;100.00;101153.94;5052837;28;20457;-69
2021/05/24 02:14:28;;;;;;;1.73;0.93;;;;;;;8.83;100.00;101155.84;5053168;28;20959;-70
2021/05/24 02:16:55;;;;;;;2.13;1.40;;;;;;;8.88;100.00;101149.63;5053548;28;20474;-70
2021/05/24 02:19:21;;;;;;;1.27;0.67;;;;;;;8.93;100.00;101154.19;5053795;28;20442;-69
2021/05/24 02:21:47;;;;;;;1.30;0.70;;;;;;;8.97;100.00;101158.78;5052655;28;21147;-70
2021/05/24 02:24:14;;;;;;;1.70;0.90;;;;;;;9.05;100.00;101157.41;5053186;28;20449;-70
2021/05/24 02:26:42;;;;;;;1.03;0.70;;;;;;;8.97;100.00;101147.16;5053111;28;20987;-70
2021/05/24 02:29:09;;;;;;;1.47;1.20;;;;;;;9.01;100.00;101145.53;5053024;28;20489;-69
2021/05/24 02:31:36;;;;;;;1.03;0.87;;;;;;;9.03;99.65;101148.75;5052832;28;20442;-71
2021/05/24 02:34:03;;;;;;;1.20;1.00;;;;;;;9.01;98.72;101140.13;5052908;28;20449;-69
2021/05/24 02:36:29;;;;;;;1.33;1.07;;;;;;;9.01;98.79;101146.31;5053240;28;20469;-70
2021/05/24 02:38:56;;;;;;;1.73;0.70;;;;;;;9.02;98.45;101147.13;5053008;28;21009;-70
2021/05/24 02:41:22;;;;;;;0.97;0.87;;;;;;;9.03;98.57;101143.34;5053019;28;20457;-70
2021/05/24 02:43:48;;;;;;;0.87;0.73;;;;;;;9.06;99.06;101148.19;5052354;28;20516;-69
2021/05/24 02:46:14;;;;;;;0.87;0.50;;;;;;;9.08;99.80;101146.03;5054183;28;20462;-70
2021/05/24 02:48:41;;;;;;;0.73;0.60;;;;;;;9.12;100.00;101141.72;5063026;28;20489;-72
2021/05/24 02:51:07;;;;;;;1.17;0.97;;;;;;;9.19;100.00;101142.19;5052685;28;20813;-71
2021/05/24 02:53:34;;;;;;;0.90;0.80;;;;;;;9.29;100.00;101136.72;5052377;28;20484;-71
2021/05/24 02:56:00;;;;;;;1.30;1.20;;;;;;;9.31;100.00;101139.97;5053050;28;20461;-70
2021/05/24 02:58:26;;;;;;;1.77;1.63;;;;;;;9.35;100.00;101143.75;5053264;28;20943;-70
2021/05/24 03:00:52;;;;;;;0.80;0.73;;;;;;;9.35;100.00;101141.03;5054232;28;20940;-71
2021/05/24 03:03:20;;;;;;;0.97;0.67;;;;;;;9.40;100.00;101144.81;5052695;28;20805;-72
2021/05/24 03:05:47;;;;;;;1.20;1.10;;;;;;;9.42;100.00;101129.91;5051289;28;21026;-72
2021/05/24 03:08:13;;;;;;;2.30;0.93;;;;;;;9.43;100.00;101136.94;5052916;28;20446;-70
2021/05/24 03:10:40;;;;;;;1.37;1.13;;;;;;;9.48;100.00;101133.41;5053109;28;20482;-71
2021/05/24 03:13:06;;;;;;;0.63;0.63;;;;;;;9.41;100.00;101143.72;5052467;28;20446;-70
2021/05/24 03:15:32;;;;;;;1.13;0.90;;;;;;;9.48;100.00;101136.09;5052970;28;20466;-71
2021/05/24 03:17:58;;;;;;;2.53;0.90;;;;;;;9.43;100.00;101141.53;5053039;28;20450;-71
2021/05/24 03:20:24;;;;;;;3.67;0.97;;;;;;;9.35;99.15;101140.22;5052679;28;20947;-71
2021/05/24 03:22:51;;;;;;;1.40;0.90;;;;;;;9.31;99.19;101145.38;5052135;28;20529;-72
2021/05/24 03:25:18;;;;;;;0.60;0.57;;;;;;;9.37;98.23;101140.75;5052366;28;20533;-71
2021/05/24 03:27:45;;;;;;;4.00;2.33;;;;;;;9.30;96.81;101138.38;5052526;28;20430;-71
2021/05/24 03:30:12;;;;;;;0.90;0.80;;;;;;;9.28;96.53;101145.94;5053035;28;20528;-71
2021/05/24 03:32:38;;;;;;;0.97;0.70;;;;;;;9.28;96.45;101151.34;5051949;28;20496;-70
2021/05/24 03:35:05;;;;;;;1.33;0.60;;;;;;;9.29;95.73;101149.44;5052313;28;20822;-70
2021/05/24 03:37:31;;;;;;;2.40;1.93;;;;;;;9.23;95.14;101154.06;5052667;28;20442;-70
2021/05/24 03:39:58;;;;;;;0.93;0.83;;;;;;;9.20;95.50;101153.81;5052742;28;20790;-70
2021/05/24 03:42:24;;;;;;;1.00;0.83;;;;;;;9.15;96.92;101151.94;5052382;28;20434;-71
2021/05/24 03:44:51;;;;;;;1.63;1.07;;;;;;;9.15;97.90;101146.53;5051805;28;20943;-69
2021/05/24 03:47:17;;;;;;;3.00;1.33;;;;;;;9.21;97.76;101140.03;5052796;28;20442;-70
2021/05/24 03:49:45;;;;;;;1.07;1.00;;;;;;;9.22;98.47;101136.25;5052534;28;20509;-71
2021/05/24 03:52:11;;;;;;;2.00;1.80;;;;;;;9.27;99.36;101143.50;5051330;28;20936;-70
2021/05/24 03:54:37;;;;;;;1.53;0.90;;;;;;;9.31;99.51;101139.97;5052393;28;20499;-70
2021/05/24 03:57:05;;;;;;;3.17;0.70;;;;;;;9.39;99.18;101140.50;5054611;28;20442;-70
2021/05/24 03:59:31;;;;;;;1.37;0.70;;;;;;;9.47;99.63;101154.19;5056160;28;20449;-71
2021/05/24 04:01:57;;;;;;;2.30;0.80;;;;;;;9.53;99.97;101152.28;5056081;28;20836;-70
2021/05/24 04:04:23;;;;;;;1.23;0.87;;;;;;;9.59;100.00;101145.75;5056043;28;20460;-70
2021/05/24 04:06:54;;;;;;;1.10;0.80;;;;;;;9.65;100.00;101149.22;5055149;28;20473;-69
2021/05/24 04:09:20;;;;;;;2.30;0.90;;;;;;;9.69;100.00;101155.69;5055608;28;20541;-70
2021/05/24 04:11:46;;;;;;;7.20;2.03;;;;;;;9.74;100.00;101148.38;5055833;28;20446;-70
2021/05/24 04:14:13;;;;;;;1.17;1.07;;;;;;;9.86;99.76;101146.09;5055579;28;20943;-70
2021/05/24 04:16:39;;;;;;;0.50;0.50;;;;;;;9.91;99.46;101137.13;5055512;28;20457;-70
2021/05/24 04:19:08;;;;;;;2.00;1.10;;;;;;;9.99;98.94;101149.25;5055176;28;21001;-70
2021/05/24 04:21:34;;;;;;;1.20;0.67;;;;;;;10.02;97.55;101154.13;5055605;28;20877;-70
2021/05/24 04:24:00;;;;;;;1.43;1.00;;;;;;;10.06;96.17;101149.75;5055699;28;20442;-68
2021/05/24 04:26:26;;;;;;;1.67;1.20;;;;;;;10.17;94.86;101153.97;5055400;28;20512;-70
2021/05/24 04:28:52;;;;;;;0.90;0.73;;;;;;;10.20;93.63;101153.41;5054512;28;21032;-71
2021/05/24 04:31:19;;;;;;;1.67;0.93;;;;;;;10.24;93.80;101156.38;5058437;28;20450;-69
2021/05/24 04:33:45;;;;;;;1.17;1.07;;;;;;;10.27;93.35;101151.22;5061606;28;20458;-69
2021/05/24 04:36:11;;;;;;;1.23;1.13;;;;;;;10.34;92.92;101157.09;5055513;28;21048;-69
2021/05/24 04:38:37;;;;;;;1.60;1.10;;;;;;;10.49;92.37;101158.88;5054710;28;21004;-70
2021/05/24 04:41:03;;;;;;;1.90;1.00;;;;;;;10.62;91.76;101154.66;5055381;28;20958;-70
2021/05/24 04:43:31;;;;;;;1.37;0.77;;;;;;;10.71;92.75;101154.84;5055275;28;20450;-70
2021/05/24 04:45:57;;;;;;;2.30;1.40;;;;;;;10.77;92.31;101148.28;5054893;28;20838;-69
2021/05/24 04:48:24;;;;;;;3.33;1.10;;;;;;;10.85;92.28;101158.50;5054333;28;20453;-69
2021/05/24 04:50:50;;;;;;;2.23;0.83;;;;;;;10.93;92.22;101148.91;5053509;28;20478;-70
2021/05/24 04:53:16;;;;;;;1.30;1.17;;;;;;;11.03;90.58;101146.09;5054778;28;20426;-70
2021/05/24 04:55:44;;;;;;;0.80;0.80;;;;;;;11.12;89.98;101149.75;5055123;28;20468;-70
2021/05/24 04:58:10;;;;;;;1.63;1.10;;;;;;;11.20;89.06;101142.88;5054226;28;20446;-70
2021/05/24 05:00:36;;;;;;;1.50;0.70;;;;;;;11.29;89.55;101152.78;5055056;28;20446;-70
2021/05/24 05:03:02;;;;;;;0.67;0.67;;;;;;;11.36;89.69;101153.22;5054690;28;20818;-70
2021/05/24 05:05:28;;;;;;;1.73;1.07;;;;;;;11.44;88.96;101153.69;5054990;28;20553;-70
2021/05/24 05:07:54;;;;;;;1.23;1.13;;;;;;;11.50;89.85;101153.28;5054028;28;20446;-70
2021/05/24 05:10:20;;;;;;;0.80;0.80;;;;;;;11.56;90.74;101156.78;5054934;28;20532;-72
2021/05/24 05:12:46;;;;;;;1.00;0.67;;;;;;;11.60;90.44;101153.16;5054782;28;20446;-71
2021/05/24 05:15:12;;;;;;;1.00;0.90;;;;;;;11.65;89.28;101156.91;5054873;28;20473;-71
2021/05/24 05:20:15;;;;;;;0.80;0.80;;;;;;;11.77;86.78;101166.19;5076774;22;20522;-63
2021/05/24 05:22:42;;;;;;;1.87;1.00;;;;;;;11.85;86.77;101162.84;5054559;28;20476;-64
2021/05/24 05:25:09;;;;;;;0.73;0.60;;;;;;;11.90;86.52;101169.31;5054100;28;20500;-63
2021/05/24 05:27:35;;;;;;;1.60;1.30;;;;;;;11.95;86.22;101178.16;5053384;28;20449;-64
2021/05/24 05:30:01;;;;;;;10.30;1.93;;;;;;;12.05;85.15;101171.78;5054086;28;20490;-63
2021/05/24 05:32:27;;;;;;;0.83;0.80;;;;;;;12.16;83.78;101172.41;5053959;28;20438;-63
2021/05/24 05:34:52;;;;;;;0.70;0.70;;;;;;;12.29;82.84;101175.19;5053862;28;20496;-64
2021/05/24 05:37:20;;;;;;;1.07;0.97;;;;;;;12.34;83.29;101161.50;5053273;28;20442;-64
2021/05/24 05:39:50;;;;;;;1.20;1.10;;;;;;;12.42;83.63;101168.16;5053980;28;20466;-62
2021/05/24 05:42:16;;;;;;;1.37;0.97;;;;;;;12.48;83.51;101169.69;5053799;28;20989;-63
2021/05/24 05:44:42;;;;;;;1.00;1.00;;;;;;;12.49;83.10;101171.31;5054023;28;20446;-64
2021/05/24 05:47:08;;;;;;;1.50;1.40;;;;;;;12.61;81.21;101170.81;5053367;28;20438;-64
2021/05/24 05:49:34;;;;;;;2.20;0.87;;;;;;;12.65;82.33;101173.75;5053607;28;20482;-64
2021/05/24 05:52:00;;;;;;;1.07;0.97;;;;;;;12.72;82.32;101169.53;5053679;28;20973;-64
2021/05/24 05:54:26;;;;;;;0.70;0.70;;;;;;;12.80;80.96;101170.75;5053867;28;20499;-66
2021/05/24 05:56:52;;;;;;;0.50;0.43;;;;;;;12.87;81.54;101169.22;5053302;28;20442;-67
2021/05/24 05:59:20;;;;;;;2.30;1.00;;;;;;;12.93;81.49;101182.75;5053259;28;20463;-65
2021/05/24 06:01:46;;;;;;;0.60;0.57;;;;;;;13.00;81.37;101188.56;5053687;28;20489;-66
2021/05/24 06:04:12;;;;;;;0.50;0.50;;;;;;;13.03;80.91;101186.03;5053591;28;20521;-63
2021/05/24 06:06:38;;;;;;;3.40;0.90;;;;;;;13.13;78.89;101179.59;5053236;28;20442;-67
2021/05/24 06:09:05;;;;;;;0.93;0.83;;;;;;;13.28;77.34;101175.78;5052551;28;21026;-61
2021/05/24 06:11:31;;;;;;;0.70;0.57;;;;;;;13.36;77.83;101183.22;5053222;28;20973;-62
2021/05/24 06:13:58;;;;;;;0.80;0.80;;;;;;;13.47;78.07;101176.47;5053491;28;20446;-62
2021/05/24 06:16:24;;;;;;;0.90;0.67;;;;;;;13.53;79.15;101182.59;5053301;28;20454;-63
2021/05/24 06:18:49;;;;;;;0.90;0.70;;;;;;;13.63;77.89;101185.91;5051909;28;20496;-62
2021/05/24 06:21:16;;;;;;;0.60;0.60;;;;;;;13.75;76.34;101190.78;5053283;28;20446;-62
2021/05/24 06:23:45;;;;;;;0.77;0.70;;;;;;;13.82;76.39;101191.19;5053363;28;20450;-62
2021/05/24 06:26:11;;;;;;;0.83;0.80;;;;;;;13.89;76.68;101191.53;5053298;28;20883;-62
2021/05/24 06:28:37;;;;;;;0.93;0.77;;;;;;;14.01;74.48;101187.47;5052403;28;20446;-62
2021/05/24 06:31:04;;;;;;;1.23;0.60;;;;;;;14.11;73.87;101181.78;5053130;28;20481;-62
2021/05/24 06:33:30;;;;;;;1.20;0.77;;;;;;;14.23;73.15;101184.75;5053234;28;20446;-62
2021/05/24 06:35:56;;;;;;;0.50;0.43;;;;;;;14.28;73.49;101181.09;5052869;28;20442;-62
2021/05/24 06:38:22;;;;;;;1.43;0.90;;;;;;;14.39;71.50;101179.72;5052146;28;20465;-62
2021/05/24 06:40:48;;;;;;;2.30;0.80;;;;;;;14.44;71.57;101185.03;5052273;28;20438;-63
2021/05/24 06:43:14;;;;;;;0.73;0.60;;;;;;;14.49;70.23;101181.41;5051888;28;20453;-62
2021/05/24 06:45:40;;;;;;;1.17;0.90;;;;;;;14.54;71.07;101173.91;5053122;28;20820;-61
2021/05/24 06:48:07;;;;;;;0.70;0.67;;;;;;;14.67;71.71;101182.31;5052157;28;20996;-62
2021/05/24 06:50:33;;;;;;;0.80;0.80;;;;;;;14.77;69.59;101177.38;5052880;28;20485;-63
2021/05/24 06:52:59;;;;;;;0.70;0.40;;;;;;;14.86;69.58;101180.13;5053037;28;20453;-62
2021/05/24 06:55:25;;;;;;;0.53;0.47;;;;;;;14.94;68.80;101173.09;5052954;28;20450;-61
2021/05/24 06:57:51;;;;;;;5.23;0.83;;;;;;;15.01;68.76;101171.53;5052081;28;20465;-63
2021/05/24 07:00:17;;;;;;;4.10;1.07;;;;;;;15.09;68.05;101162.53;5052597;28;20939;-61
2021/05/24 07:02:43;;;;;;;0.97;0.50;;;;;;;15.24;67.48;101161.31;5052962;28;20438;-62
2021/05/24 07:05:11;;;;;;;0.60;0.50;;;;;;;15.41;65.79;101165.22;5052844;28;20962;-58
2021/05/24 07:07:37;;;;;;;2.10;0.50;;;;;;;15.49;67.61;101164.38;5051971;28;20446;-59
2021/05/24 07:10:05;;;;;;;1.00;0.63;;;;;;;15.53;66.53;101165.34;5052706;28;20486;-59
2021/05/24 07:12:31;;;;;;;1.57;1.03;;;;;;;15.63;64.86;101154.13;5052608;28;20855;-61
2021/05/24 07:14:57;;;;;;;0.50;0.47;;;;;;;15.70;64.57;101149.00;5052462;28;20438;-59
2021/05/24 07:17:23;;;;;;;0.60;0.60;;;;;;;15.74;64.25;101155.44;5051935;28;20442;-62
2021/05/24 07:19:50;;;;;;;0.90;0.60;;;;;;;15.83;62.84;101148.03;5052407;28;20481;-63
2021/05/24 07:22:17;;;;;;;0.60;0.50;;;;;;;15.94;62.93;101153.16;5052780;28;20505;-63
2021/05/24 07:24:43;;;;;;;1.80;0.50;;;;;;;16.01;62.32;101153.50;5052660;28;20453;-62
2021/05/24 07:27:09;;;;;;;2.20;0.47;;;;;;;16.10;61.55;101151.53;5033423;28;20439;-61
2021/05/24 07:29:35;;;;;;;0.60;0.60;;;;;;;16.21;61.75;101141.09;5021026;28;21000;-63
2021/05/24 07:32:01;;;;;;;0.50;0.50;;;;;;;16.27;61.46;101134.31;5026013;28;20465;-63
2021/05/24 07:34:27;;;;;;;1.10;0.50;;;;;;;16.33;60.87;101128.31;5026299;28;20502;-62
2021/05/24 07:36:53;;;;;;;0.60;0.50;;;;;;;16.40;61.61;101123.16;5025448;28;20484;-62
2021/05/24 07:39:20;;;;;;;0.83;0.60;;;;;;;16.49;62.38;101125.88;5026770;28;20447;-62
2021/05/24 07:41:46;;;;;;;1.63;1.03;;;;;;;16.57;59.26;101127.78;5025610;28;21000;-61
2021/05/24 07:44:12;;;;;;;0.80;0.60;;;;;;;16.70;60.87;101123.22;5025333;28;20435;-62
2021/05/24 07:46:38;;;;;;;0.87;0.60;;;;;;;16.81;61.58;101124.47;5026662;28;20439;-63
2021/05/24 07:49:04;;;;;;;0.90;0.80;;;;;;;16.90;61.96;101127.97;5024041;28;20466;-62
2021/05/24 07:51:31;;;;;;;0.80;0.63;;;;;;;16.99;58.82;101125.16;5031835;28;20446;-60
2021/05/24 07:53:57;;;;;;;0.77;0.70;;;;;;;17.07;57.59;101116.13;5035096;28;20489;-60
2021/05/24 07:56:23;;;;;;;0.50;0.50;;;;;;;17.16;57.57;101116.06;5035579;28;20447;-58
2021/05/24 07:58:49;;;;;;;0.80;0.60;;;;;;;17.27;56.50;101124.69;5035795;28;20520;-60
2021/05/24 08:01:15;;;;;;;0.83;0.77;;;;;;;17.37;56.95;101118.81;5035974;28;20526;-60
2021/05/24 08:03:41;;;;;;;0.83;0.60;;;;;;;17.44;57.82;101121.00;5035922;28;20446;-60
2021/05/24 08:06:08;;;;;;;0.53;0.43;;;;;;;17.50;55.82;101114.22;5035628;28;21028;-59
2021/05/24 08:08:33;;;;;;;0.60;0.33;;;;;;;17.54;56.50;101118.69;5035526;28;20462;-58
2021/05/24 08:11:00;;;;;;;0.50;0.40;;;;;;;17.54;53.89;101115.94;5034953;28;20486;-60
2021/05/24 08:13:28;;;;;;;0.50;0.40;;;;;;;17.60;55.13;101113.78;5035508;28;20971;-60
2021/05/24 08:15:54;;;;;;;0.60;0.40;;;;;;;17.65;53.27;101110.84;5035502;28;20450;-60
2021/05/24 08:18:20;;;;;;;0.60;0.50;;;;;;;17.63;53.49;101115.88;5035293;28;20485;-60
2021/05/24 08:20:48;;;;;;;0.60;0.50;;;;;;;17.69;52.19;101106.28;5034643;28;20501;-60
2021/05/24 08:23:14;;;;;;;0.60;0.43;;;;;;;17.71;53.04;101100.47;5035239;28;20979;-59
2021/05/24 08:25:40;;;;;;;1.83;0.50;;;;;;;17.81;53.42;101111.06;5035120;28;20574;-59
2021/05/24 08:28:06;;;;;;;0.80;0.50;;;;;;;17.89;51.86;101101.97;5034786;28;20538;-60
2021/05/24 08:30:34;;;;;;;0.50;0.40;;;;;;;17.94;51.54;101101.75;5034670;28;20486;-60
2021/05/24 08:33:00;;;;;;;0.93;0.50;;;;;;;17.94;51.42;101098.22;5035572;28;20443;-60
2021/05/24 08:35:26;;;;;;;0.60;0.50;;;;;;;17.97;52.11;101089.28;5035238;28;20443;-60
2021/05/24 08:37:52;;;;;;;0.80;0.57;;;;;;;18.02;50.30;101091.84;5035335;28;20867;-59
2021/05/24 08:40:18;;;;;;;0.70;0.60;;;;;;;18.09;52.15;101092.88;5035028;28;20467;-60
2021/05/24 08:42:46;;;;;;;0.63;0.60;;;;;;;18.13;51.41;101087.50;5034553;28;20447;-60
2021/05/24 08:45:13;;;;;;;0.63;0.50;;;;;;;18.29;52.05;101077.50;5035261;28;20439;-59
2021/05/24 08:47:41;;;;;;;0.60;0.40;;;;;;;18.47;52.29;101089.06;5033972;28;20440;-59
2021/05/24 08:50:08;;;;;;;0.50;0.30;;;;;;;18.72;49.03;101081.63;5034178;28;20482;-59
2021/05/24 08:52:34;;;;;;;0.70;0.50;;;;;;;18.81;49.30;101076.03;5035014;28;20446;-59
2021/05/24 08:55:00;;;;;;;0.60;0.40;;;;;;;18.93;47.76;101081.50;5035136;28;20439;-60
2021/05/24 08:57:26;;;;;;;2.73;0.53;;;;;;;19.01;49.06;101068.81;5034120;28;20450;-60
2021/05/24 08:59:52;;;;;;;0.93;0.40;;;;;;;18.94;49.65;101063.09;5034433;28;20459;-60
2021/05/24 09:02:19;;;;;;;3.10;0.60;;;;;;;18.96;48.83;101069.84;5034945;28;20446;-58
2021/05/24 09:04:48;;;;;;;0.60;0.47;;;;;;;19.07;47.61;101070.16;5034355;28;20983;-60
2021/05/24 09:07:15;;;;;;;0.57;0.50;;;;;;;19.07;47.74;101075.63;5033559;28;20485;-60
2021/05/24 09:09:58;;;;;;;0.97;0.40;;;;;;;19.16;47.50;101065.31;5034033;28;20495;-62
2021/05/24 09:12:31;;;;;;;1.43;0.40;;;;;;;19.30;48.70;101060.28;5033513;28;20430;-61
2021/05/24 09:14:58;;;;;;;0.67;0.47;;;;;;;19.52;46.52;101049.84;5034681;28;20438;-58
2021/05/24 09:17:25;;;;;;;0.50;0.40;;;;;;;19.77;48.12;101051.38;5039455;28;20961;-58
2021/05/24 09:19:51;;;;;;;0.90;0.40;;;;;;;19.87;47.11;101050.84;5053730;28;20862;-59
2021/05/24 09:22:17;;;;;;;0.63;0.50;;;;;;;19.80;45.97;101052.63;5054027;28;20453;-60
2021/05/24 09:24:45;;;;;;;0.70;0.50;;;;;;;19.61;46.80;101054.09;5053690;28;20450;-62
2021/05/24 09:27:25;;;;;;;0.50;0.40;;;;;;;19.53;45.50;101049.53;5053914;28;20830;-65
2021/05/24 09:29:52;;;;;;;1.37;0.50;;;;;;;19.46;43.93;101054.81;5054089;28;20494;-64
2021/05/24 09:32:20;;;;;;;0.60;0.50;;;;;;;19.34;44.77;101052.91;5052976;28;20955;-64
2021/05/24 09:34:49;;;;;;;0.77;0.40;;;;;;;19.28;45.25;101042.53;5053938;28;20442;-64
2021/05/24 09:37:17;;;;;;;0.87;0.50;;;;;;;19.28;45.60;101046.06;5053942;28;20438;-63
2021/05/24 09:39:44;;;;;;;0.50;0.40;;;;;;;19.32;46.29;101037.94;5054895;28;20474;-62
2021/05/24 09:42:13;;;;;;;0.47;0.40;;;;;;;19.37;44.89;101040.44;5054349;28;20486;-63
2021/05/24 09:44:44;;;;;;;0.60;0.50;;;;;;;19.33;44.99;101039.53;5054139;28;20442;-64
2021/05/24 09:47:10;;;;;;;0.50;0.40;;;;;;;19.38;45.20;101034.56;5054763;28;20450;-62
2021/05/24 09:49:37;;;;;;;0.60;0.53;;;;;;;19.45;45.83;101017.50;5053994;28;20675;-61
2021/05/24 09:52:05;;;;;;;0.90;0.50;;;;;;;19.48;45.21;101024.22;5054195;28;20431;-61
2021/05/24 09:54:34;;;;;;;0.63;0.50;;;;;;;19.46;45.37;101010.84;5053747;28;20951;-62
2021/05/24 09:57:05;;;;;;;0.90;0.40;;;;;;;19.59;46.52;101004.13;5055017;28;20488;-61
2021/05/24 09:59:33;;;;;;;0.50;0.50;;;;;;;19.81;45.22;101000.03;5054153;28;21229;-63
2021/05/24 10:02:01;;;;;;;0.43;0.33;;;;;;;19.94;44.40;100988.97;5052912;28;20435;-62
2021/05/24 10:04:29;;;;;;;1.80;0.40;;;;;;;20.08;44.60;100984.59;5054589;28;20932;-61
2021/05/24 10:06:56;;;;;;;0.50;0.40;;;;;;;20.09;43.45;100988.94;5053667;28;20993;-61
2021/05/24 10:09:22;;;;;;;0.47;0.40;;;;;;;20.16;43.25;100982.84;5054129;28;20465;-61
2021/05/24 10:11:51;;;;;;;3.23;0.70;;;;;;;19.99;43.55;100984.00;5053303;28;20450;-62
2021/05/24 10:14:19;;;;;;;0.60;0.43;;;;;;;20.02;41.55;100980.53;5053211;28;20931;-62
2021/05/24 10:16:48;;;;;;;0.70;0.37;;;;;;;20.06;41.98;100983.38;5053596;28;20442;-63
2021/05/24 10:19:15;;;;;;;0.50;0.40;;;;;;;20.19;43.60;100973.88;5053328;28;20497;-62
2021/05/24 10:21:42;;;;;;;1.80;0.63;;;;;;;20.11;41.95;100972.09;5052633;28;20439;-61
2021/05/24 10:24:09;;;;;;;0.50;0.40;;;;;;;20.10;43.17;100968.56;5052526;28;20438;-62
2021/05/24 10:26:36;;;;;;;0.83;0.50;;;;;;;20.08;42.83;100959.06;5053558;28;20442;-62
2021/05/24 10:29:04;;;;;;;0.60;0.50;;;;;;;20.28;43.11;100962.69;5053252;28;20458;-60
2021/05/24 10:31:31;;;;;;;0.80;0.50;;;;;;;20.46;41.40;100952.09;5053228;28;20836;-59
2021/05/24 10:34:09;;;;;;;0.50;0.40;;;;;;;20.40;41.62;100962.56;5053122;28;20442;-61
2021/05/24 10:36:35;;;;;;;0.60;0.50;;;;;;;20.42;40.42;100949.25;5053747;28;20423;-62
2021/05/24 10:39:15;;;;;;;0.67;0.40;;;;;;;20.44;42.11;100946.91;5053859;28;20464;-62
2021/05/24 10:41:43;;;;;;;0.50;0.40;;;;;;;20.59;41.25;100945.34;5052816;28;20438;-61
2021/05/24 10:44:11;;;;;;;0.60;0.40;;;;;;;20.79;41.76;100935.13;5053053;28;20469;-60
2021/05/24 10:46:38;;;;;;;0.60;0.40;;;;;;;20.98;41.73;100934.31;5053286;28;20453;-61
2021/05/24 10:49:17;;;;;;;0.60;0.50;;;;;;;20.95;39.79;100933.09;5052424;28;20465;-62
2021/05/24 10:51:52;;;;;;;0.50;0.40;;;;;;;20.87;40.01;100921.13;5053173;28;20423;-61
2021/05/24 10:54:35;;;;;;;1.37;0.50;;;;;;;21.02;41.04;100907.63;5053519;28;20453;-58
2021/05/24 10:57:22;;;;;;;0.50;0.40;;;;;;;21.04;40.40;100910.84;5053075;28;20450;-61
2021/05/24 10:59:58;;;;;;;0.60;0.40;;;;;;;21.16;40.19;100903.22;5052638;28;20834;-60
2021/05/24 11:02:37;;;;;;;0.53;0.40;;;;;;;21.10;38.56;100901.09;5052551;28;20458;-62
2021/05/24 11:05:07;;;;;;;12.33;0.70;;;;;;;21.21;38.51;100893.84;5054605;28;20469;-60
2021/05/24 11:07:34;;;;;;;0.80;0.50;;;;;;;;;;5056615;28;20459;-59
2021/05/24 11:10:19;;;;;;;0.63;0.47;;;;;;;21.26;37.52;100896.31;5022360;28;20484;-61
2021/05/24 11:12:47;;;;;;;0.47;0.37;;;;;;;21.29;41.25;100890.03;5016411;28;20447;-64
2021/05/24 11:15:15;;;;;;;0.87;0.40;;;;;;;21.97;38.15;100893.19;5016492;28;20501;-64
2021/05/24 11:18:18;;;;;;;0.50;0.40;;;;;;;22.79;37.96;100886.81;5016968;28;20456;-64
2021/05/24 11:20:48;;;;;;;2.90;0.40;;;;;;;23.14;35.94;100883.66;5007239;28;20448;-65
2021/05/24 11:23:26;;;;;;;0.50;0.30;;;;;;;24.19;34.46;100888.91;5017135;28;20452;-64
2021/05/24 11:25:55;;;;;;;1.20;0.60;;;;;;;25.01;33.06;100882.91;5016939;28;20451;-65
2021/05/24 11:28:31;;;;;;;0.57;0.43;;;;;;;25.47;31.70;100885.03;5016920;28;20503;-65
2021/05/24 11:31:14;;;;;;;0.50;0.40;;;;;;;25.47;31.76;100876.69;5015956;28;20503;-65